sensor_id;sensor_type;location;lat;lon;timestamp;temperature;humidity
76787;DHT22;65739;51.482;5.702;2024-02-26T00:00:39;6.50;99.90
76787;DHT22;65739;51.482;5.702;2024-02-26T00:03:06;6.40;99.90
76787;DHT22;65739;51.482;5.702;2024-02-26T00:05:32;6.50;99.90
76787;DHT22;65739;51.482;5.702;2024-02-26T00:07:58;6.50;99.90
76787;DHT22;65739;51.482;5.702;2024-02-26T00:10:24;6.50;99.90
76787;DHT22;65739;51.482;5.702;2024-02-26T00:12:53;6.40;99.90
76787;DHT22;65739;51.482;5.702;2024-02-26T00:15:21;6.50;99.90
76787;DHT22;65739;51.482;5.702;2024-02-26T00:17:47;6.50;99.90
76787;DHT22;65739;51.482;5.702;2024-02-26T00:20:13;6.40;99.90
76787;DHT22;65739;51.482;5.702;2024-02-26T00:22:39;6.40;99.90
76787;DHT22;65739;51.482;5.702;2024-02-26T00:25:05;6.40;99.90
76787;DHT22;65739;51.482;5.702;2024-02-26T00:27:39;6.40;99.90
76787;DHT22;65739;51.482;5.702;2024-02-26T00:30:07;6.40;99.90
76787;DHT22;65739;51.482;5.702;2024-02-26T00:32:46;6.40;99.90
76787;DHT22;65739;51.482;5.702;2024-02-26T00:35:12;6.40;99.90
76787;DHT22;65739;51.482;5.702;2024-02-26T00:37:41;6.40;99.90
76787;DHT22;65739;51.482;5.702;2024-02-26T00:40:54;6.40;99.90
76787;DHT22;65739;51.482;5.702;2024-02-26T00:43:00;6.40;99.90
76787;DHT22;65739;51.482;5.702;2024-02-26T00:45:29;6.40;99.90
76787;DHT22;65739;51.482;5.702;2024-02-26T00:47:55;6.40;99.90
76787;DHT22;65739;51.482;5.702;2024-02-26T00:50:21;6.40;99.90
76787;DHT22;65739;51.482;5.702;2024-02-26T00:52:47;6.30;99.90
76787;DHT22;65739;51.482;5.702;2024-02-26T00:55:13;6.30;99.90
76787;DHT22;65739;51.482;5.702;2024-02-26T00:57:39;6.30;99.90
76787;DHT22;65739;51.482;5.702;2024-02-26T01:00:07;6.30;99.90
76787;DHT22;65739;51.482;5.702;2024-02-26T01:02:35;6.30;99.90
76787;DHT22;65739;51.482;5.702;2024-02-26T01:05:01;6.30;99.90
76787;DHT22;65739;51.482;5.702;2024-02-26T01:07:28;6.30;99.90
76787;DHT22;65739;51.482;5.702;2024-02-26T01:09:54;6.30;99.90
76787;DHT22;65739;51.482;5.702;2024-02-26T01:12:20;6.30;99.90
76787;DHT22;65739;51.482;5.702;2024-02-26T01:17:50;6.20;99.90
76787;DHT22;65739;51.482;5.702;2024-02-26T01:20:19;6.20;99.90
76787;DHT22;65739;51.482;5.702;2024-02-26T01:22:45;6.20;99.90
76787;DHT22;65739;51.482;5.702;2024-02-26T01:25:12;6.20;99.90
76787;DHT22;65739;51.482;5.702;2024-02-26T01:27:43;6.20;99.90
76787;DHT22;65739;51.482;5.702;2024-02-26T01:30:15;6.20;99.90
76787;DHT22;65739;51.482;5.702;2024-02-26T01:32:42;6.20;99.90
76787;DHT22;65739;51.482;5.702;2024-02-26T01:35:08;6.20;99.90
76787;DHT22;65739;51.482;5.702;2024-02-26T01:37:36;6.10;99.90
76787;DHT22;65739;51.482;5.702;2024-02-26T01:40:03;6.10;99.90
76787;DHT22;65739;51.482;5.702;2024-02-26T01:42:30;6.10;99.90
76787;DHT22;65739;51.482;5.702;2024-02-26T01:44:58;6.00;99.90
76787;DHT22;65739;51.482;5.702;2024-02-26T01:47:25;6.00;99.90
76787;DHT22;65739;51.482;5.702;2024-02-26T01:49:52;6.00;99.90
76787;DHT22;65739;51.482;5.702;2024-02-26T01:52:37;6.00;99.90
76787;DHT22;65739;51.482;5.702;2024-02-26T01:55:07;6.00;99.90
76787;DHT22;65739;51.482;5.702;2024-02-26T01:57:33;6.00;99.90
76787;DHT22;65739;51.482;5.702;2024-02-26T02:00:09;6.00;99.90
76787;DHT22;65739;51.482;5.702;2024-02-26T02:02:36;6.00;99.90
76787;DHT22;65739;51.482;5.702;2024-02-26T02:05:02;6.00;99.90
76787;DHT22;65739;51.482;5.702;2024-02-26T02:07:43;6.00;99.90
76787;DHT22;65739;51.482;5.702;2024-02-26T02:10:15;6.00;99.90
76787;DHT22;65739;51.482;5.702;2024-02-26T02:12:50;6.00;99.90
76787;DHT22;65739;51.482;5.702;2024-02-26T02:15:16;6.00;99.90
76787;DHT22;65739;51.482;5.702;2024-02-26T02:17:42;6.00;99.90
76787;DHT22;65739;51.482;5.702;2024-02-26T02:20:16;6.00;99.90
76787;DHT22;65739;51.482;5.702;2024-02-26T02:22:47;5.90;99.90
76787;DHT22;65739;51.482;5.702;2024-02-26T02:25:16;5.90;99.90
76787;DHT22;65739;51.482;5.702;2024-02-26T02:27:47;5.90;99.90
76787;DHT22;65739;51.482;5.702;2024-02-26T02:30:16;5.90;99.90
76787;DHT22;65739;51.482;5.702;2024-02-26T02:32:53;5.80;99.90
76787;DHT22;65739;51.482;5.702;2024-02-26T02:35:19;5.70;99.90
76787;DHT22;65739;51.482;5.702;2024-02-26T02:37:56;5.70;99.90
76787;DHT22;65739;51.482;5.702;2024-02-26T02:40:49;5.70;99.90
76787;DHT22;65739;51.482;5.702;2024-02-26T02:43:35;5.70;99.90
76787;DHT22;65739;51.482;5.702;2024-02-26T02:49:27;5.60;99.90
76787;DHT22;65739;51.482;5.702;2024-02-26T02:51:56;5.60;99.90
76787;DHT22;65739;51.482;5.702;2024-02-26T02:54:28;5.60;99.90
76787;DHT22;65739;51.482;5.702;2024-02-26T02:56:57;5.60;99.90
76787;DHT22;65739;51.482;5.702;2024-02-26T03:00:09;5.60;99.90
76787;DHT22;65739;51.482;5.702;2024-02-26T03:03:15;5.50;99.90
76787;DHT22;65739;51.482;5.702;2024-02-26T03:09:45;5.50;99.90
76787;DHT22;65739;51.482;5.702;2024-02-26T03:12:10;5.50;99.90
76787;DHT22;65739;51.482;5.702;2024-02-26T03:14:39;5.40;99.90
76787;DHT22;65739;51.482;5.702;2024-02-26T03:17:05;5.50;99.90
76787;DHT22;65739;51.482;5.702;2024-02-26T03:20:12;5.40;99.90
76787;DHT22;65739;51.482;5.702;2024-02-26T03:22:42;5.40;99.90
76787;DHT22;65739;51.482;5.702;2024-02-26T03:25:24;5.40;99.90
76787;DHT22;65739;51.482;5.702;2024-02-26T03:27:50;5.40;99.90
76787;DHT22;65739;51.482;5.702;2024-02-26T03:30:21;5.40;99.90
76787;DHT22;65739;51.482;5.702;2024-02-26T03:32:50;5.40;99.90
76787;DHT22;65739;51.482;5.702;2024-02-26T03:35:19;5.40;99.90
76787;DHT22;65739;51.482;5.702;2024-02-26T03:37:57;5.30;99.90
76787;DHT22;65739;51.482;5.702;2024-02-26T03:44:09;5.40;99.90
76787;DHT22;65739;51.482;5.702;2024-02-26T03:46:55;5.30;99.90
76787;DHT22;65739;51.482;5.702;2024-02-26T03:49:27;5.30;99.90
76787;DHT22;65739;51.482;5.702;2024-02-26T04:06:10;5.30;99.90
76787;DHT22;65739;51.482;5.702;2024-02-26T04:09:11;5.30;99.90
76787;DHT22;65739;51.482;5.702;2024-02-26T04:11:40;5.30;99.90
76787;DHT22;65739;51.482;5.702;2024-02-26T04:14:08;5.30;99.90
76787;DHT22;65739;51.482;5.702;2024-02-26T04:17:02;5.30;99.90
76787;DHT22;65739;51.482;5.702;2024-02-26T04:23:02;5.30;99.90
76787;DHT22;65739;51.482;5.702;2024-02-26T04:26:03;5.30;99.90
76787;DHT22;65739;51.482;5.702;2024-02-26T04:55:52;5.20;99.90
76787;DHT22;65739;51.482;5.702;2024-02-26T05:05:33;5.20;99.90
76787;DHT22;65739;51.482;5.702;2024-02-26T05:08:16;5.20;99.90
76787;DHT22;65739;51.482;5.702;2024-02-26T05:21:45;5.20;99.90
76787;DHT22;65739;51.482;5.702;2024-02-26T05:41:45;5.20;99.90
76787;DHT22;65739;51.482;5.702;2024-02-26T05:47:45;5.20;99.90
76787;DHT22;65739;51.482;5.702;2024-02-26T05:50:26;5.20;99.90
76787;DHT22;65739;51.482;5.702;2024-02-26T05:53:47;5.20;99.90
76787;DHT22;65739;51.482;5.702;2024-02-26T05:56:47;5.20;99.90
76787;DHT22;65739;51.482;5.702;2024-02-26T06:06:11;5.20;99.90
76787;DHT22;65739;51.482;5.702;2024-02-26T06:09:10;5.20;99.90
76787;DHT22;65739;51.482;5.702;2024-02-26T06:11:44;5.20;99.90
76787;DHT22;65739;51.482;5.702;2024-02-26T06:14:13;5.20;99.90
76787;DHT22;65739;51.482;5.702;2024-02-26T06:16:44;5.20;99.90
76787;DHT22;65739;51.482;5.702;2024-02-26T06:19:18;5.20;99.90
76787;DHT22;65739;51.482;5.702;2024-02-26T06:21:55;5.20;99.90
76787;DHT22;65739;51.482;5.702;2024-02-26T06:31:12;5.10;99.90
76787;DHT22;65739;51.482;5.702;2024-02-26T06:33:39;5.10;99.90
76787;DHT22;65739;51.482;5.702;2024-02-26T06:36:24;5.20;99.90
76787;DHT22;65739;51.482;5.702;2024-02-26T06:39:13;5.20;99.90
76787;DHT22;65739;51.482;5.702;2024-02-26T06:41:43;5.10;99.90
76787;DHT22;65739;51.482;5.702;2024-02-26T06:44:19;5.10;99.90
76787;DHT22;65739;51.482;5.702;2024-02-26T07:00:45;5.00;99.90
76787;DHT22;65739;51.482;5.702;2024-02-26T07:06:54;5.00;99.90
76787;DHT22;65739;51.482;5.702;2024-02-26T07:09:31;5.00;99.90
76787;DHT22;65739;51.482;5.702;2024-02-26T07:11:57;5.00;99.90
76787;DHT22;65739;51.482;5.702;2024-02-26T07:15:08;5.00;99.90
76787;DHT22;65739;51.482;5.702;2024-02-26T07:17:42;5.00;99.90
76787;DHT22;65739;51.482;5.702;2024-02-26T07:20:12;5.00;99.90
76787;DHT22;65739;51.482;5.702;2024-02-26T07:22:54;5.00;99.90
76787;DHT22;65739;51.482;5.702;2024-02-26T07:25:31;5.00;99.90
76787;DHT22;65739;51.482;5.702;2024-02-26T07:28:33;5.00;99.90
76787;DHT22;65739;51.482;5.702;2024-02-26T07:31:34;5.00;99.90
76787;DHT22;65739;51.482;5.702;2024-02-26T07:47:18;5.00;99.90
76787;DHT22;65739;51.482;5.702;2024-02-26T07:50:16;5.00;99.90
76787;DHT22;65739;51.482;5.702;2024-02-26T07:52:45;5.00;99.90
76787;DHT22;65739;51.482;5.702;2024-02-26T08:16:08;5.20;99.90
76787;DHT22;65739;51.482;5.702;2024-02-26T08:19:03;5.20;99.90
76787;DHT22;65739;51.482;5.702;2024-02-26T08:21:50;5.20;99.90
76787;DHT22;65739;51.482;5.702;2024-02-26T08:34:14;5.20;99.90
76787;DHT22;65739;51.482;5.702;2024-02-26T08:40:34;5.20;99.90
76787;DHT22;65739;51.482;5.702;2024-02-26T08:50:11;5.20;99.90
76787;DHT22;65739;51.482;5.702;2024-02-26T08:56:39;5.20;99.90
76787;DHT22;65739;51.482;5.702;2024-02-26T09:00:12;5.20;99.90
76787;DHT22;65739;51.482;5.702;2024-02-26T09:06:20;5.10;99.90
76787;DHT22;65739;51.482;5.702;2024-02-26T09:12:57;5.10;99.90
76787;DHT22;65739;51.482;5.702;2024-02-26T09:15:50;5.10;99.90
76787;DHT22;65739;51.482;5.702;2024-02-26T09:18:19;5.10;99.90
76787;DHT22;65739;51.482;5.702;2024-02-26T11:57:47;5.50;99.90
76787;DHT22;65739;51.482;5.702;2024-02-26T14:54:28;5.80;99.90
76787;DHT22;65739;51.482;5.702;2024-02-26T17:55:10;5.50;99.90
76787;DHT22;65739;51.482;5.702;2024-02-26T17:57:44;5.40;99.90
76787;DHT22;65739;51.482;5.702;2024-02-26T18:00:37;5.40;99.90
76787;DHT22;65739;51.482;5.702;2024-02-26T18:04:36;5.40;99.90
76787;DHT22;65739;51.482;5.702;2024-02-26T18:06:45;5.40;99.90
76787;DHT22;65739;51.482;5.702;2024-02-26T18:13:10;5.40;99.90
76787;DHT22;65739;51.482;5.702;2024-02-26T18:15:50;5.40;99.90
76787;DHT22;65739;51.482;5.702;2024-02-26T18:18:27;5.40;99.90
76787;DHT22;65739;51.482;5.702;2024-02-26T18:20:56;5.40;99.90
76787;DHT22;65739;51.482;5.702;2024-02-26T18:23:30;5.40;99.90
76787;DHT22;65739;51.482;5.702;2024-02-26T18:26:02;5.40;99.90
76787;DHT22;65739;51.482;5.702;2024-02-26T18:28:47;5.40;99.90
76787;DHT22;65739;51.482;5.702;2024-02-26T18:31:17;5.30;99.90
76787;DHT22;65739;51.482;5.702;2024-02-26T18:33:46;5.30;99.90
76787;DHT22;65739;51.482;5.702;2024-02-26T18:36:15;5.30;99.90
76787;DHT22;65739;51.482;5.702;2024-02-26T18:38:49;5.30;99.90
76787;DHT22;65739;51.482;5.702;2024-02-26T18:41:25;5.40;99.90
76787;DHT22;65739;51.482;5.702;2024-02-26T18:43:52;5.30;99.90
76787;DHT22;65739;51.482;5.702;2024-02-26T18:46:28;5.30;99.90
76787;DHT22;65739;51.482;5.702;2024-02-26T18:48:59;5.30;99.90
76787;DHT22;65739;51.482;5.702;2024-02-26T18:51:33;5.30;99.90
76787;DHT22;65739;51.482;5.702;2024-02-26T18:54:02;5.30;99.90
76787;DHT22;65739;51.482;5.702;2024-02-26T18:56:47;5.30;99.90
76787;DHT22;65739;51.482;5.702;2024-02-26T18:59:12;5.30;99.90
76787;DHT22;65739;51.482;5.702;2024-02-26T19:04:22;5.30;99.90
76787;DHT22;65739;51.482;5.702;2024-02-26T19:09:47;5.20;99.90
76787;DHT22;65739;51.482;5.702;2024-02-26T19:15:41;5.20;99.90
76787;DHT22;65739;51.482;5.702;2024-02-26T19:18:38;5.20;99.90
76787;DHT22;65739;51.482;5.702;2024-02-26T19:21:01;5.20;99.90
76787;DHT22;65739;51.482;5.702;2024-02-26T19:23:45;5.20;99.90
76787;DHT22;65739;51.482;5.702;2024-02-26T19:26:11;5.20;99.90
76787;DHT22;65739;51.482;5.702;2024-02-26T19:28:46;5.20;99.90
76787;DHT22;65739;51.482;5.702;2024-02-26T19:31:14;5.20;99.90
76787;DHT22;65739;51.482;5.702;2024-02-26T19:33:43;5.20;99.90
76787;DHT22;65739;51.482;5.702;2024-02-26T19:36:31;5.20;99.90
76787;DHT22;65739;51.482;5.702;2024-02-26T19:39:20;5.20;99.90
76787;DHT22;65739;51.482;5.702;2024-02-26T19:42:13;5.20;99.90
76787;DHT22;65739;51.482;5.702;2024-02-26T19:45:11;5.20;99.90
76787;DHT22;65739;51.482;5.702;2024-02-26T19:47:56;5.20;99.90
76787;DHT22;65739;51.482;5.702;2024-02-26T19:53:32;5.10;99.90
76787;DHT22;65739;51.482;5.702;2024-02-26T19:56:42;5.10;99.90
76787;DHT22;65739;51.482;5.702;2024-02-26T19:59:24;5.10;99.90
76787;DHT22;65739;51.482;5.702;2024-02-26T20:16:21;5.10;99.90
76787;DHT22;65739;51.482;5.702;2024-02-26T21:43:36;4.90;99.90
76787;DHT22;65739;51.482;5.702;2024-02-26T21:46:29;4.90;99.90
76787;DHT22;65739;51.482;5.702;2024-02-26T21:52:29;5.00;99.90
76787;DHT22;65739;51.482;5.702;2024-02-26T22:22:14;4.90;99.90
76787;DHT22;65739;51.482;5.702;2024-02-26T23:09:54;4.80;99.90
76787;DHT22;65739;51.482;5.702;2024-02-26T23:12:27;4.80;99.90
76787;DHT22;65739;51.482;5.702;2024-02-26T23:15:01;4.80;99.90
76787;DHT22;65739;51.482;5.702;2024-02-26T23:17:30;4.80;99.90
76787;DHT22;65739;51.482;5.702;2024-02-26T23:19:59;4.80;99.90
76787;DHT22;65739;51.482;5.702;2024-02-26T23:22:32;4.80;99.90
76787;DHT22;65739;51.482;5.702;2024-02-26T23:25:11;4.80;99.90
76787;DHT22;65739;51.482;5.702;2024-02-26T23:27:43;4.80;99.90
76787;DHT22;65739;51.482;5.702;2024-02-26T23:30:10;4.80;99.90
76787;DHT22;65739;51.482;5.702;2024-02-26T23:32:37;4.70;99.90
76787;DHT22;65739;51.482;5.702;2024-02-26T23:35:04;4.70;99.90
76787;DHT22;65739;51.482;5.702;2024-02-26T23:37:37;4.70;99.90
76787;DHT22;65739;51.482;5.702;2024-02-26T23:40:04;4.70;99.90
76787;DHT22;65739;51.482;5.702;2024-02-26T23:42:34;4.70;99.90
76787;DHT22;65739;51.482;5.702;2024-02-26T23:45:01;4.70;99.90
76787;DHT22;65739;51.482;5.702;2024-02-26T23:47:32;4.60;99.90
76787;DHT22;65739;51.482;5.702;2024-02-26T23:50:01;4.70;99.90
76787;DHT22;65739;51.482;5.702;2024-02-26T23:52:30;4.60;99.90
76787;DHT22;65739;51.482;5.702;2024-02-26T23:55:19;4.60;99.90
76787;DHT22;65739;51.482;5.702;2024-02-26T23:57:52;4.70;99.90
